Time;durP1;ratioP1;P1;durP2;ratioP2;P2;SDS_P1;SDS_P2;PMS_P1;PMS_P2;Temp;Humidity;BMP_temperature;BMP_pressure;BME280_temperature;BME280_humidity;BME280_pressure;Samples;Min_cycle;Max_cycle;Signal;HPM_P1;HPM_P2
2022/06/23 00:01:03;;;;;;;4.25;3.10;;;18.50;99.90;;;;;;5171708;28;20219;-64
2022/06/23 00:03:40;;;;;;;3.53;3.17;;;18.40;99.90;;;;;;5161785;28;20026;-66
2022/06/23 00:06:27;;;;;;;4.10;3.13;;;18.50;99.90;;;;;;5163794;28;20056;-67
2022/06/23 00:09:04;;;;;;;4.57;3.70;;;18.50;99.90;;;;;;5174129;28;20038;-66
2022/06/23 00:11:36;;;;;;;3.85;3.13;;;18.50;99.90;;;;;;5176539;28;20319;-64
2022/06/23 00:14:16;;;;;;;3.20;2.65;;;18.50;99.90;;;;;;5173612;28;20030;-64
2022/06/23 00:16:53;;;;;;;7.65;3.42;;;18.50;99.90;;;;;;5161311;28;20318;-65
2022/06/23 00:19:24;;;;;;;5.45;3.30;;;18.60;99.90;;;;;;5144381;28;20042;-64
2022/06/23 00:21:56;;;;;;;4.22;3.25;;;18.60;99.90;;;;;;5158564;28;20028;-65
2022/06/23 00:24:30;;;;;;;5.20;2.80;;;18.60;99.90;;;;;;5150796;28;20239;-65
2022/06/23 00:27:05;;;;;;;4.72;3.42;;;18.60;99.90;;;;;;5155649;28;20039;-65
2022/06/23 00:29:39;;;;;;;6.65;3.40;;;18.60;99.90;;;;;;5166144;28;20212;-66
2022/06/23 00:32:18;;;;;;;4.57;3.40;;;18.70;99.90;;;;;;5170936;28;20320;-64
2022/06/23 00:35:08;;;;;;;4.25;3.20;;;18.70;99.90;;;;;;5156660;28;20036;-63
2022/06/23 00:37:49;;;;;;;3.83;3.20;;;18.70;99.90;;;;;;5176506;28;20052;-65
2022/06/23 00:40:31;;;;;;;4.00;3.60;;;18.60;99.90;;;;;;5194112;28;20267;-64
2022/06/23 00:43:12;;;;;;;4.40;3.75;;;18.50;99.90;;;;;;5169694;28;20038;-63
2022/06/23 00:45:54;;;;;;;4.40;3.72;;;18.60;99.90;;;;;;5157828;28;20034;-65
2022/06/23 00:48:50;;;;;;;4.45;3.50;;;18.50;99.90;;;;;;5156564;28;20027;-64
2022/06/23 00:51:32;;;;;;;6.10;3.50;;;18.50;99.90;;;;;;5174044;28;20037;-64
2022/06/23 00:54:24;;;;;;;4.38;3.53;;;18.60;99.90;;;;;;5189757;28;20034;-65
2022/06/23 00:57:29;;;;;;;4.07;3.10;;;18.60;99.90;;;;;;5193366;28;20033;-64
2022/06/23 01:00:24;;;;;;;4.05;3.22;;;18.60;99.90;;;;;;5187325;28;20042;-65
2022/06/23 01:03:18;;;;;;;5.07;4.00;;;18.60;99.90;;;;;;5169353;28;20040;-64
2022/06/23 01:06:23;;;;;;;6.10;3.88;;;18.60;99.90;;;;;;5161252;28;20064;-65
2022/06/23 01:09:26;;;;;;;4.10;3.70;;;18.60;99.90;;;;;;5170456;28;20044;-64
2022/06/23 01:12:29;;;;;;;4.65;2.92;;;18.60;99.90;;;;;;5177484;28;20519;-65
2022/06/23 01:15:28;;;;;;;5.07;3.45;;;18.60;99.90;;;;;;5172946;28;20335;-64
2022/06/23 01:18:18;;;;;;;4.72;3.45;;;18.50;99.90;;;;;;5155646;28;20034;-64
2022/06/23 01:21:07;;;;;;;5.40;3.53;;;18.50;99.90;;;;;;5158284;28;20036;-67
2022/06/23 01:24:26;;;;;;;4.93;3.75;;;18.50;99.90;;;;;;5166448;28;20106;-64
2022/06/23 01:27:17;;;;;;;3.90;3.25;;;18.60;99.90;;;;;;5137920;28;20031;-66
2022/06/23 01:30:08;;;;;;;5.20;3.55;;;18.50;99.90;;;;;;5160771;28;20184;-64
2022/06/23 01:33:06;;;;;;;4.88;3.35;;;18.50;99.90;;;;;;5173013;28;20304;-64
2022/06/23 01:35:59;;;;;;;4.40;3.72;;;18.50;99.90;;;;;;5172834;28;20060;-64
2022/06/23 01:38:58;;;;;;;4.18;3.42;;;18.50;99.90;;;;;;5168674;28;20036;-63
2022/06/23 01:41:42;;;;;;;3.83;3.40;;;18.60;99.90;;;;;;5159765;28;20038;-67
2022/06/23 01:44:13;;;;;;;4.03;3.63;;;18.50;99.90;;;;;;5176471;28;20098;-64
2022/06/23 01:46:50;;;;;;;4.72;4.20;;;18.50;99.90;;;;;;5169482;28;20359;-66
2022/06/23 01:49:34;;;;;;;4.68;3.65;;;18.40;99.90;;;;;;5155791;28;20030;-63
2022/06/23 01:52:13;;;;;;;4.97;3.67;;;18.40;99.90;;;;;;5154652;28;20295;-63
2022/06/23 01:54:54;;;;;;;5.43;4.05;;;18.30;99.90;;;;;;5191952;28;20282;-66
2022/06/23 01:57:48;;;;;;;7.75;3.90;;;18.20;99.90;;;;;;5192268;28;20030;-64
2022/06/23 02:00:26;;;;;;;5.75;4.28;;;18.10;99.90;;;;;;5168174;28;20034;-65
2022/06/23 02:03:10;;;;;;;4.32;3.47;;;18.00;99.90;;;;;;5171977;28;20030;-66
2022/06/23 02:06:00;;;;;;;5.10;4.15;;;18.00;99.90;;;;;;5165456;28;20184;-65
2022/06/23 02:08:36;;;;;;;5.30;4.53;;;17.90;99.90;;;;;;5165730;28;20042;-65
2022/06/23 02:11:22;;;;;;;5.72;4.70;;;17.70;99.90;;;;;;5192167;28;20026;-65
2022/06/23 02:14:36;;;;;;;5.82;3.97;;;17.70;99.90;;;;;;5177336;28;20026;-67
2022/06/23 02:17:33;;;;;;;5.63;4.28;;;17.60;99.90;;;;;;5170788;28;20049;-65
2022/06/23 02:20:40;;;;;;;5.85;4.50;;;17.60;99.90;;;;;;5136300;28;20253;-65
2022/06/23 02:23:41;;;;;;;7.25;5.00;;;17.50;99.90;;;;;;5179979;28;20034;-66
2022/06/23 02:26:37;;;;;;;4.47;4.05;;;17.40;99.90;;;;;;5170221;28;20045;-66
2022/06/23 02:29:29;;;;;;;4.82;4.05;;;17.30;99.90;;;;;;5170518;28;20445;-65
2022/06/23 02:32:03;;;;;;;5.70;4.50;;;17.20;99.90;;;;;;5168729;28;20053;-65
2022/06/23 02:34:54;;;;;;;5.22;4.72;;;17.20;99.90;;;;;;5170946;28;20045;-64
2022/06/23 02:37:59;;;;;;;4.85;4.35;;;17.20;99.90;;;;;;5173386;28;20045;-65
2022/06/23 02:40:46;;;;;;;;;;;17.00;99.90;;;;;;5165813;28;20026;-68
2022/06/23 02:43:29;;;;;;;7.60;4.85;;;17.00;99.90;;;;;;5170889;28;19916;-67
2022/06/23 02:46:16;;;;;;;7.32;4.63;;;17.00;99.90;;;;;;5157590;28;20135;-67
2022/06/23 02:49:31;;;;;;;7.20;4.47;;;17.00;99.90;;;;;;5156704;28;20291;-65
2022/06/23 02:52:20;;;;;;;7.43;4.77;;;17.00;99.90;;;;;;5171935;28;20259;-66
2022/06/23 02:55:32;;;;;;;6.32;5.38;;;17.00;99.90;;;;;;5177031;28;20406;-67
2022/06/23 02:58:25;;;;;;;6.35;4.30;;;17.00;99.90;;;;;;5154930;28;20032;-63
2022/06/23 03:01:27;;;;;;;4.97;4.43;;;17.00;99.90;;;;;;5134992;28;20029;-64
2022/06/23 03:04:19;;;;;;;7.78;5.25;;;17.00;99.90;;;;;;5154939;28;20205;-65
2022/06/23 03:07:06;;;;;;;5.50;4.70;;;17.00;99.90;;;;;;5128669;28;20312;-65
2022/06/23 03:09:52;;;;;;;6.90;4.65;;;17.00;99.90;;;;;;5193704;28;20040;-64
2022/06/23 03:12:44;;;;;;;6.60;5.45;;;16.90;99.90;;;;;;5192513;28;20030;-66
2022/06/23 03:15:34;;;;;;;9.05;5.90;;;17.00;99.90;;;;;;5158863;28;20030;-63
2022/06/23 03:18:18;;;;;;;7.15;5.63;;;17.00;99.90;;;;;;5159985;28;20234;-69
2022/06/23 03:21:04;;;;;;;5.75;5.10;;;17.00;99.90;;;;;;5157962;28;20038;-66
2022/06/23 03:23:59;;;;;;;5.63;4.78;;;17.10;99.90;;;;;;5161776;28;20029;-68
2022/06/23 03:26:36;;;;;;;9.38;5.53;;;17.10;99.90;;;;;;5155933;28;20320;-68
2022/06/23 03:29:23;;;;;;;8.70;5.30;;;17.00;99.90;;;;;;5155855;28;20034;-66
2022/06/23 03:32:36;;;;;;;6.63;5.22;;;17.20;99.90;;;;;;5155237;28;20041;-65
2022/06/23 03:35:25;;;;;;;7.72;4.97;;;17.20;99.90;;;;;;5155513;28;20049;-66
2022/06/23 03:38:15;;;;;;;7.38;5.35;;;17.40;99.90;;;;;;5168275;28;20840;-64
2022/06/23 03:44:00;;;;;;;5.80;4.90;;;17.60;99.90;;;;;;5159939;28;20030;-66
2022/06/23 03:46:43;;;;;;;4.97;4.45;;;17.60;99.90;;;;;;5160771;28;20130;-67
2022/06/23 03:50:07;;;;;;;5.93;4.63;;;17.60;99.90;;;;;;5152078;28;20041;-65
2022/06/23 03:52:53;;;;;;;5.72;4.57;;;17.70;99.90;;;;;;5117971;28;20328;-67
2022/06/23 03:55:50;;;;;;;7.75;4.82;;;17.80;99.90;;;;;;5116333;28;20062;-70
2022/06/23 03:58:47;;;;;;;7.90;4.85;;;17.80;99.90;;;;;;5118276;28;20049;-65
2022/06/23 04:01:55;;;;;;;5.55;4.10;;;17.90;99.90;;;;;;5127400;28;20039;-65
2022/06/23 04:05:29;;;;;;;5.40;4.30;;;18.00;99.90;;;;;;5125593;28;20050;-65
2022/06/23 04:08:07;;;;;;;5.55;4.03;;;18.30;99.90;;;;;;5074802;29;20329;-68
2022/06/23 04:10:45;;;;;;;4.78;4.28;;;18.40;99.90;;;;;;5097701;29;20044;-70
2022/06/23 04:13:30;;;;;;;5.30;4.38;;;18.60;99.90;;;;;;5097071;29;20067;-69
2022/06/23 04:16:09;;;;;;;5.47;3.75;;;18.70;99.90;;;;;;5097143;29;20054;-69
2022/06/23 04:18:45;;;;;;;6.95;4.63;;;18.90;99.90;;;;;;5081135;29;20048;-69
2022/06/23 04:21:28;;;;;;;5.32;4.00;;;19.10;99.90;;;;;;5097180;29;20053;-69
2022/06/23 04:24:04;;;;;;;6.95;3.58;;;19.30;99.90;;;;;;5084416;29;20046;-68
2022/06/23 04:26:42;;;;;;;5.85;4.07;;;19.30;99.90;;;;;;5097946;29;20387;-68
2022/06/23 04:29:43;;;;;;;4.50;3.55;;;19.40;99.90;;;;;;5101383;29;20054;-68
2022/06/23 04:32:28;;;;;;;3.92;3.25;;;19.40;99.90;;;;;;5087200;29;20040;-68
2022/06/23 04:38:59;;;;;;;3.65;2.88;;;19.60;99.90;;;;;;5145010;28;20039;-67
2022/06/23 04:41:44;;;;;;;7.43;3.00;;;19.70;99.90;;;;;;5157471;28;20038;-68
2022/06/23 04:44:20;;;;;;;;;;;19.80;99.90;;;;;;5174127;28;20324;-67
2022/06/23 04:46:58;;;;;;;3.15;2.85;;;19.90;99.90;;;;;;5175434;28;20168;-67
2022/06/23 04:50:12;;;;;;;2.85;2.53;;;20.00;99.90;;;;;;5173580;28;20037;-67
2022/06/23 04:52:57;;;;;;;3.30;2.50;;;19.90;99.90;;;;;;5100924;29;20078;-66
2022/06/23 04:55:36;;;;;;;2.90;2.67;;;19.80;99.90;;;;;;5117033;29;20236;-67
2022/06/23 04:58:23;;;;;;;5.78;3.03;;;20.00;99.90;;;;;;5117667;29;20317;-67
2022/06/23 05:00:57;;;;;;;3.30;2.55;;;20.10;99.90;;;;;;5101353;29;20229;-67
2022/06/23 05:03:35;;;;;;;;;;;20.50;99.90;;;;;;5115910;29;20039;-67
2022/06/23 05:06:32;;;;;;;3.60;2.30;;;20.90;99.90;;;;;;5105873;29;19926;-68
2022/06/23 05:09:22;;;;;;;2.83;2.60;;;21.30;99.90;;;;;;5116616;29;20051;-67
2022/06/23 05:12:02;;;;;;;4.80;2.17;;;21.60;99.90;;;;;;5117162;29;20039;-67
2022/06/23 05:14:57;;;;;;;4.72;3.00;;;21.90;99.90;;;;;;5101683;29;20043;-67
2022/06/23 05:17:34;;;;;;;4.00;2.40;;;22.40;99.90;;;;;;5116831;29;20249;-67
2022/06/23 05:20:19;;;;;;;2.28;1.95;;;22.80;99.90;;;;;;5128693;28;20042;-66
2022/06/23 05:22:56;;;;;;;2.70;2.50;;;23.30;99.90;;;;;;5155250;28;20319;-65
2022/06/23 05:25:43;;;;;;;2.10;1.90;;;23.30;99.90;;;;;;5172391;28;20316;-66
2022/06/23 05:28:36;;;;;;;3.10;2.20;;;23.70;99.90;;;;;;5158127;28;20031;-66
2022/06/23 05:31:31;;;;;;;3.30;2.28;;;24.00;99.90;;;;;;5173264;28;20035;-67
2022/06/23 05:34:24;;;;;;;4.20;2.33;;;24.10;99.90;;;;;;5174708;28;20051;-67
2022/06/23 05:36:58;;;;;;;2.42;2.00;;;23.50;99.90;;;;;;5173839;28;20045;-68
2022/06/23 05:39:41;;;;;;;2.20;2.00;;;23.30;99.90;;;;;;5172098;28;20215;-66
2022/06/23 05:42:33;;;;;;;2.38;1.92;;;23.10;99.90;;;;;;5173744;28;20035;-67
2022/06/23 05:45:18;;;;;;;3.42;2.08;;;23.20;99.90;;;;;;5172651;28;20328;-68
2022/06/23 05:47:56;;;;;;;2.42;2.20;;;23.70;99.90;;;;;;5172337;28;20031;-67
2022/06/23 05:51:05;;;;;;;2.47;2.28;;;23.90;99.90;;;;;;5171585;28;20316;-67
2022/06/23 05:53:51;;;;;;;2.83;2.28;;;23.80;99.90;;;;;;5114460;29;20046;-66
2022/06/23 05:56:32;;;;;;;3.17;2.30;;;23.70;99.90;;;;;;5114594;29;20048;-65
2022/06/23 05:59:18;;;;;;;2.80;2.38;;;23.80;99.90;;;;;;5116292;29;20104;-66
2022/06/23 06:01:58;;;;;;;2.25;2.00;;;23.70;99.90;;;;;;5115185;29;20036;-66
2022/06/23 06:04:48;;;;;;;2.83;2.60;;;23.40;99.90;;;;;;5106463;29;20046;-66
2022/06/23 06:07:27;;;;;;;3.65;2.80;;;23.50;99.90;;;;;;5099895;29;20047;-66
2022/06/23 06:10:12;;;;;;;2.50;2.28;;;23.50;99.90;;;;;;5114048;29;20100;-66
2022/06/23 06:12:44;;;;;;;;;;;23.60;99.90;;;;;;5100762;29;20046;-65
2022/06/23 06:15:30;;;;;;;3.28;2.60;;;23.40;99.90;;;;;;5115214;29;19910;-66
2022/06/23 06:18:23;;;;;;;3.97;2.70;;;23.20;99.90;;;;;;5115549;29;20036;-65
2022/06/23 06:21:07;;;;;;;3.17;2.85;;;23.00;99.90;;;;;;5116050;29;20328;-66
2022/06/23 06:23:58;;;;;;;3.40;2.58;;;22.80;99.90;;;;;;5116677;29;20058;-66
2022/06/23 06:26:42;;;;;;;3.50;2.70;;;22.80;99.90;;;;;;5115483;29;20224;-66
2022/06/23 06:29:26;;;;;;;4.60;3.43;;;22.80;99.90;;;;;;5111106;28;20045;-66
2022/06/23 06:32:19;;;;;;;3.13;2.72;;;22.70;99.90;;;;;;5172852;28;20279;-66
2022/06/23 06:35:24;;;;;;;6.78;2.70;;;22.90;99.90;;;;;;5173575;28;20053;-66
2022/06/23 06:38:09;;;;;;;3.08;2.53;;;23.40;99.90;;;;;;5173036;28;20057;-68
2022/06/23 06:40:48;;;;;;;6.35;2.97;;;23.90;99.90;;;;;;5172873;28;20227;-66
2022/06/23 06:43:29;;;;;;;3.38;2.83;;;24.10;99.90;;;;;;5204944;28;20042;-66
2022/06/23 06:46:01;;;;;;;2.75;2.47;;;23.90;99.90;;;;;;5155813;28;20037;-64
2022/06/23 06:48:43;;;;;;;3.33;3.03;;;23.60;99.90;;;;;;5170882;28;20205;-65
2022/06/23 06:51:25;;;;;;;4.82;2.90;;;23.50;99.90;;;;;;5170993;28;20026;-67
2022/06/23 06:54:03;;;;;;;4.00;3.10;;;23.30;99.90;;;;;;5171876;28;20042;-66
2022/06/23 06:56:43;;;;;;;2.83;2.50;;;23.40;99.90;;;;;;5171752;28;20053;-66
2022/06/23 06:59:34;;;;;;;3.03;2.30;;;24.00;99.90;;;;;;5172065;28;20043;-67
2022/06/23 07:03:03;;;;;;;5.03;3.22;;;24.20;99.90;;;;;;5187928;28;20052;-66
2022/06/23 07:06:03;;;;;;;2.95;2.75;;;24.20;99.90;;;;;;5169147;28;20206;-64
2022/06/23 07:08:57;;;;;;;5.07;2.83;;;23.70;99.90;;;;;;5172996;28;20046;-65
2022/06/23 07:11:43;;;;;;;3.20;2.67;;;23.90;99.90;;;;;;5158753;28;20232;-64
2022/06/23 07:14:27;;;;;;;3.17;2.38;;;24.10;99.90;;;;;;5156153;28;20251;-63
2022/06/23 07:17:25;;;;;;;3.38;2.55;;;24.30;99.90;;;;;;5152321;28;20215;-64
2022/06/23 07:20:06;;;;;;;4.05;2.75;;;24.10;99.90;;;;;;5156382;28;20030;-65
2022/06/23 07:22:57;;;;;;;3.30;2.42;;;24.40;99.90;;;;;;5160757;28;20044;-63
2022/06/23 07:25:56;;;;;;;3.35;2.30;;;24.40;99.90;;;;;;5166105;28;20030;-64
2022/06/23 07:28:41;;;;;;;3.00;2.42;;;24.70;99.90;;;;;;5168898;28;20038;-65
2022/06/23 07:31:23;;;;;;;2.85;2.35;;;24.70;99.90;;;;;;5167755;28;20323;-64
2022/06/23 07:34:07;;;;;;;2.38;2.17;;;24.60;99.90;;;;;;5155346;28;20203;-64
2022/06/23 07:37:19;;;;;;;5.28;2.40;;;25.10;99.90;;;;;;5154817;28;20032;-63
2022/06/23 07:40:00;;;;;;;2.53;2.10;;;26.10;99.90;;;;;;5170532;28;20046;-64
2022/06/23 07:42:47;;;;;;;4.30;2.10;;;25.90;99.90;;;;;;5153014;28;20026;-63
2022/06/23 07:45:36;;;;;;;2.63;1.85;;;26.70;99.90;;;;;;5163515;28;20276;-63
2022/06/23 07:48:10;;;;;;;2.40;2.20;;;27.20;99.90;;;;;;5169378;28;20052;-63
2022/06/23 07:50:42;;;;;;;2.40;2.08;;;28.10;99.90;;;;;;5172213;28;20036;-64
2022/06/23 07:53:30;;;;;;;2.85;2.22;;;28.90;99.90;;;;;;5169256;28;20128;-63
2022/06/23 07:56:14;;;;;;;2.60;2.40;;;28.40;99.90;;;;;;5194653;28;20195;-64
2022/06/23 07:58:53;;;;;;;2.90;2.60;;;28.30;99.90;;;;;;5194418;28;20038;-63
2022/06/23 08:02:15;;;;;;;2.33;2.13;;;28.40;99.90;;;;;;5176549;28;20042;-64
2022/06/23 08:05:05;;;;;;;4.60;2.17;;;27.00;99.90;;;;;;5124278;28;20050;-63
2022/06/23 08:07:44;;;;;;;2.45;2.08;;;27.40;99.90;;;;;;5136086;28;20038;-64
2022/06/23 08:10:27;;;;;;;2.47;2.00;;;28.30;99.90;;;;;;5119546;28;20038;-63
2022/06/23 08:13:12;;;;;;;2.88;2.63;;;28.40;99.90;;;;;;5122453;28;20039;-63
2022/06/23 08:18:54;;;;;;;;;;;29.70;99.90;;;;;;5124416;28;20267;-63
2022/06/23 08:21:28;;;;;;;2.35;1.90;;;30.20;99.90;;;;;;5124426;28;19914;-65
2022/06/23 08:24:01;;;;;;;;;;;29.40;99.90;;;;;;5099765;28;20031;-64
2022/06/23 08:26:38;;;;;;;2.78;2.20;;;29.30;99.90;;;;;;5113830;28;19920;-64
2022/06/23 08:29:15;;;;;;;4.88;2.40;;;29.20;99.90;;;;;;5114372;28;20343;-64
2022/06/23 08:31:49;;;;;;;2.17;1.98;;;27.80;99.90;;;;;;5113383;28;20165;-62
2022/06/23 08:34:23;;;;;;;2.55;1.83;;;27.80;99.90;;;;;;5115015;28;20064;-63
2022/06/23 08:37:00;;;;;;;;;;;29.70;99.90;;;;;;5116889;28;20026;-64
2022/06/23 08:40:19;;;;;;;2.33;2.13;;;29.70;99.90;;;;;;5135957;28;19910;-62
2022/06/23 08:43:13;;;;;;;2.67;1.90;;;29.10;99.90;;;;;;5128182;28;20364;-63
2022/06/23 08:46:05;;;;;;;4.00;2.25;;;29.00;99.90;;;;;;5127523;28;20216;-64
2022/06/23 08:48:45;;;;;;;1.80;1.70;;;29.60;99.90;;;;;;5113544;28;20406;-63
2022/06/23 08:51:37;;;;;;;5.07;2.30;;;30.60;99.90;;;;;;5128551;28;20381;-63
2022/06/23 08:54:30;;;;;;;2.25;1.75;;;31.70;99.90;;;;;;5128389;28;20150;-63
2022/06/23 08:57:22;;;;;;;2.85;1.92;;;32.00;99.90;;;;;;5123016;28;20208;-63
2022/06/23 09:00:16;;;;;;;2.03;1.83;;;31.40;99.90;;;;;;5128325;28;20119;-63
2022/06/23 09:03:14;;;;;;;2.63;2.00;;;29.70;99.90;;;;;;5133688;28;20042;-62
2022/06/23 09:06:26;;;;;;;2.20;2.00;;;29.10;99.90;;;;;;5120159;28;20038;-63
2022/06/23 09:09:30;;;;;;;1.98;1.85;;;29.20;99.90;;;;;;5127522;28;20047;-62
2022/06/23 09:13:31;;;;;;;1.85;1.75;;;28.60;99.90;;;;;;5129844;28;20398;-63
2022/06/23 09:16:32;;;;;;;1.50;1.40;;;29.90;99.90;;;;;;5014398;29;20174;-62
2022/06/23 09:19:29;;;;;;;2.13;1.92;;;30.90;99.90;;;;;;5009734;29;20050;-62
2022/06/23 09:22:47;;;;;;;1.65;1.55;;;31.00;99.90;;;;;;5000050;29;20077;-63
2022/06/23 09:25:59;;;;;;;2.55;1.73;;;31.20;99.90;;;;;;5047908;29;20040;-63
2022/06/23 09:29:07;;;;;;;1.83;1.73;;;31.60;99.90;;;;;;5114354;29;20032;-63
2022/06/23 09:32:00;;;;;;;2.08;1.52;;;32.90;99.90;;;;;;5076010;29;20371;-63
2022/06/23 09:35:01;;;;;;;2.90;2.00;;;34.30;99.90;;;;;;5062528;29;20102;-67
2022/06/23 09:37:47;;;;;;;4.50;2.38;;;33.50;99.90;;;;;;5095873;29;20215;-63
2022/06/23 09:41:10;;;;;;;1.90;1.80;;;31.20;99.90;;;;;;5088369;29;20062;-62
2022/06/23 09:44:00;;;;;;;2.08;1.88;;;30.40;99.90;;;;;;5092593;29;20218;-63
2022/06/23 09:47:11;;;;;;;1.80;1.70;;;30.70;99.90;;;;;;5132702;28;20050;-62
2022/06/23 09:50:13;;;;;;;2.90;1.90;;;30.30;99.90;;;;;;5158005;28;20049;-62
2022/06/23 09:53:09;;;;;;;1.85;1.75;;;29.20;99.90;;;;;;5186356;28;20053;-62
2022/06/23 09:56:17;;;;;;;3.65;1.75;;;29.60;99.90;;;;;;5158167;28;20044;-64
2022/06/23 09:59:07;;;;;;;2.00;1.80;;;29.40;99.90;;;;;;5168414;28;20048;-63
2022/06/23 10:01:59;;;;;;;2.22;2.03;;;31.10;99.90;;;;;;5156884;28;20034;-63
2022/06/23 10:04:51;;;;;;;2.42;1.85;;;32.30;99.90;;;;;;5138961;28;20081;-64
2022/06/23 10:08:08;;;;;;;2.10;1.85;;;32.80;99.90;;;;;;5149440;28;20048;-64
2022/06/23 10:10:57;;;;;;;2.17;1.98;;;33.00;99.90;;;;;;5156738;28;20323;-63
2022/06/23 10:14:08;;;;;;;2.17;1.80;;;34.30;99.90;;;;;;5171284;28;20026;-62
2022/06/23 10:17:19;;;;;;;2.67;2.20;;;33.10;99.90;;;;;;5172296;28;20030;-63
2022/06/23 10:20:10;;;;;;;2.13;1.92;;;33.10;99.90;;;;;;5156953;28;20214;-64
2022/06/23 10:23:22;;;;;;;4.30;1.98;;;33.00;99.90;;;;;;5163093;28;20025;-63
2022/06/23 10:26:20;;;;;;;2.08;1.80;;;32.60;99.90;;;;;;5176007;28;20295;-63
2022/06/23 10:29:00;;;;;;;1.80;1.55;;;32.10;99.90;;;;;;5156838;28;20037;-62
2022/06/23 10:32:06;;;;;;;2.20;1.90;;;33.60;99.90;;;;;;5156839;28;20040;-63
2022/06/23 10:34:54;;;;;;;2.60;2.40;;;35.00;99.90;;;;;;5155151;28;20026;-63
2022/06/23 10:38:22;;;;;;;3.35;2.00;;;35.50;99.90;;;;;;5156689;28;20036;-63
2022/06/23 10:41:27;;;;;;;3.97;2.40;;;36.10;99.90;;;;;;5154398;28;20039;-63
2022/06/23 10:44:22;;;;;;;2.03;1.90;;;35.20;99.90;;;;;;5157069;28;20030;-62
2022/06/23 10:47:00;;;;;;;1.83;1.70;;;34.80;99.90;;;;;;5158167;28;20049;-63
2022/06/23 10:50:05;;;;;;;1.90;1.77;;;36.00;99.90;;;;;;5157736;28;20034;-63
2022/06/23 10:53:10;;;;;;;3.17;1.98;;;38.20;99.90;;;;;;5162907;28;20026;-63
2022/06/23 10:56:02;;;;;;;2.22;2.03;;;39.90;99.90;;;;;;5177492;28;20323;-62
2022/06/23 10:58:58;;;;;;;2.45;1.80;;;40.60;99.90;;;;;;5189638;28;20299;-62
2022/06/23 11:02:30;;;;;;;2.75;2.45;;;39.20;99.90;;;;;;5150184;28;20040;-62
2022/06/23 11:05:19;;;;;;;2.42;2.22;;;37.60;99.90;;;;;;5147439;28;20049;-64
2022/06/23 11:08:32;;;;;;;2.20;2.00;;;37.00;99.90;;;;;;5158458;28;20019;-63
2022/06/23 11:11:52;;;;;;;3.25;2.08;;;37.60;99.90;;;;;;5153218;28;20034;-62
2022/06/23 11:14:30;;;;;;;2.65;2.35;;;39.60;99.90;;;;;;5156810;28;20041;-63
2022/06/23 11:17:19;;;;;;;2.08;1.90;;;41.80;99.90;;;;;;5151625;28;20038;-62
2022/06/23 11:20:10;;;;;;;1.92;1.83;;;42.60;99.90;;;;;;5164401;28;20034;-64
2022/06/23 11:23:08;;;;;;;2.35;2.17;;;44.30;99.90;;;;;;5147497;28;20039;-63
2022/06/23 11:26:06;;;;;;;2.25;2.05;;;45.10;97.90;;;;;;5168278;28;20042;-63
2022/06/23 11:28:46;;;;;;;2.17;2.08;;;45.60;95.50;;;;;;5165661;28;20068;-63
2022/06/23 11:31:50;;;;;;;1.88;1.77;;;43.30;96.10;;;;;;5175575;28;20050;-62
2022/06/23 11:35:13;;;;;;;1.98;1.77;;;39.70;96.90;;;;;;5161410;28;20040;-62
2022/06/23 11:38:04;;;;;;;2.00;1.90;;;38.00;98.00;;;;;;5177637;28;20042;-62
2022/06/23 11:40:57;;;;;;;2.40;2.20;;;38.40;98.30;;;;;;5196836;28;20041;-63
2022/06/23 11:43:44;;;;;;;3.20;2.00;;;39.80;96.90;;;;;;5176135;28;20030;-64
2022/06/23 11:46:38;;;;;;;3.47;2.03;;;41.40;96.90;;;;;;5160905;28;20038;-63
2022/06/23 11:49:42;;;;;;;3.30;1.92;;;41.00;95.60;;;;;;5158861;28;20224;-63
2022/06/23 11:52:32;;;;;;;2.05;1.95;;;39.90;96.50;;;;;;5168416;28;20065;-63
2022/06/23 11:55:54;;;;;;;2.42;2.22;;;38.50;97.10;;;;;;5165705;28;20065;-63
2022/06/23 11:59:03;;;;;;;1.70;1.60;;;36.50;99.00;;;;;;5136142;28;20042;-61
2022/06/23 12:01:39;;;;;;;1.83;1.73;;;36.00;99.90;;;;;;5151381;28;20256;-61
2022/06/23 12:04:59;;;;;;;1.98;1.88;;;36.10;98.50;;;;;;5159031;28;20034;-62
2022/06/23 12:07:50;;;;;;;1.98;1.88;;;36.90;98.00;;;;;;5138592;28;20042;-63
2022/06/23 12:10:27;;;;;;;2.00;1.80;;;39.00;96.60;;;;;;5168950;28;20034;-62
2022/06/23 12:13:04;;;;;;;1.98;1.88;;;39.50;96.30;;;;;;5168815;28;20045;-62
2022/06/23 12:15:47;;;;;;;1.90;1.63;;;39.60;95.10;;;;;;5166485;28;20041;-62
2022/06/23 12:18:27;;;;;;;7.45;2.22;;;36.60;96.40;;;;;;5169637;28;20027;-61
2022/06/23 12:21:32;;;;;;;2.33;1.73;;;35.80;97.20;;;;;;5172045;28;20192;-65
2022/06/23 12:24:45;;;;;;;2.63;1.63;;;37.60;96.70;;;;;;5157093;28;20060;-63
2022/06/23 12:27:35;;;;;;;4.53;1.88;;;38.70;95.10;;;;;;5158451;28;20359;-62
2022/06/23 12:30:13;;;;;;;2.00;1.90;;;40.80;95.30;;;;;;5174248;28;20072;-62
2022/06/23 12:33:09;;;;;;;2.08;1.63;;;41.60;93.20;;;;;;5178662;28;20034;-65
2022/06/23 12:36:15;;;;;;;2.22;1.80;;;42.60;93.00;;;;;;5140294;28;20330;-63
2022/06/23 12:38:54;;;;;;;1.77;1.67;;;43.00;92.80;;;;;;5167804;28;20038;-62
2022/06/23 12:41:46;;;;;;;2.33;1.48;;;44.00;91.30;;;;;;5168340;28;20045;-62
2022/06/23 12:44:52;;;;;;;1.85;1.60;;;43.00;91.80;;;;;;5168538;28;20048;-62
2022/06/23 12:47:39;;;;;;;1.98;1.77;;;42.60;91.60;;;;;;5185564;28;20042;-64
2022/06/23 12:50:38;;;;;;;2.00;1.58;;;44.40;90.30;;;;;;5168745;28;20324;-62
2022/06/23 12:53:30;;;;;;;3.17;1.90;;;43.00;89.50;;;;;;5183159;28;20048;-62
2022/06/23 12:56:19;;;;;;;1.27;1.17;;;40.20;91.00;;;;;;5150415;28;20042;-64
2022/06/23 12:59:08;;;;;;;1.50;1.40;;;39.00;92.50;;;;;;5183205;28;20029;-63
2022/06/23 13:01:53;;;;;;;3.08;1.98;;;38.20;92.60;;;;;;5163751;28;20060;-62
2022/06/23 13:04:57;;;;;;;3.10;1.75;;;37.40;93.00;;;;;;5150488;28;20036;-61
2022/06/23 13:07:50;;;;;;;1.40;1.30;;;36.60;93.10;;;;;;5159219;28;20042;-63
2022/06/23 13:10:36;;;;;;;1.63;1.52;;;36.10;93.90;;;;;;5179450;28;20038;-61
2022/06/23 13:13:15;;;;;;;1.42;1.33;;;37.60;92.70;;;;;;5165916;28;20018;-62
2022/06/23 13:15:59;;;;;;;1.70;1.60;;;39.00;91.80;;;;;;5157807;28;20038;-62
2022/06/23 13:18:59;;;;;;;1.60;1.50;;;38.80;91.70;;;;;;5172948;28;20038;-62
2022/06/23 13:21:39;;;;;;;1.83;1.58;;;39.30;91.80;;;;;;5158466;28;20377;-63
2022/06/23 13:24:17;;;;;;;1.10;1.10;;;40.60;91.50;;;;;;5183269;28;20224;-62
2022/06/23 13:27:20;;;;;;;1.50;1.40;;;41.80;90.50;;;;;;5157590;28;20034;-64
2022/06/23 13:30:13;;;;;;;1.52;1.42;;;41.80;89.30;;;;;;5157097;28;20042;-63
2022/06/23 13:32:59;;;;;;;1.40;1.30;;;42.40;89.60;;;;;;5173292;28;20291;-64
2022/06/23 13:35:42;;;;;;;1.35;1.25;;;42.60;88.50;;;;;;5173117;28;20034;-62
2022/06/23 13:38:54;;;;;;;1.50;1.40;;;40.90;88.40;;;;;;5157129;28;20026;-61
2022/06/23 13:41:44;;;;;;;1.10;1.10;;;38.70;90.80;;;;;;5140870;28;20166;-64
2022/06/23 13:44:47;;;;;;;1.52;1.42;;;36.70;91.60;;;;;;5170579;28;20034;-64
2022/06/23 13:47:21;;;;;;;1.50;1.40;;;34.80;92.20;;;;;;5170261;28;20036;-63
2022/06/23 13:50:15;;;;;;;2.10;1.70;;;34.70;93.20;;;;;;5187493;28;20064;-64
2022/06/23 13:53:14;;;;;;;1.38;1.25;;;36.50;92.30;;;;;;5166500;28;20369;-62
2022/06/23 13:56:19;;;;;;;1.30;1.20;;;37.70;91.50;;;;;;5162354;28;20336;-63
2022/06/23 13:59:06;;;;;;;3.15;1.60;;;39.90;89.90;;;;;;5143325;28;20038;-62
2022/06/23 14:02:15;;;;;;;1.98;1.33;;;40.30;89.00;;;;;;5152664;28;20118;-63
2022/06/23 14:04:58;;;;;;;1.90;1.60;;;38.70;89.40;;;;;;5135232;28;20046;-63
2022/06/23 14:07:48;;;;;;;1.42;1.33;;;38.10;90.40;;;;;;5151160;28;20038;-64
2022/06/23 14:11:02;;;;;;;1.50;1.40;;;37.10;90.80;;;;;;5162092;28;20312;-62
2022/06/23 14:14:12;;;;;;;1.45;1.35;;;35.30;91.70;;;;;;5147721;28;20216;-63
2022/06/23 14:16:58;;;;;;;1.73;1.63;;;33.60;92.90;;;;;;5148576;28;20034;-62
2022/06/23 14:19:52;;;;;;;1.55;1.30;;;33.00;93.10;;;;;;5164786;28;20068;-64
2022/06/23 14:22:35;;;;;;;1.90;1.70;;;32.00;93.80;;;;;;5152872;28;20030;-61
2022/06/23 14:25:49;;;;;;;1.50;1.40;;;32.00;94.10;;;;;;5145933;28;20029;-61
2022/06/23 14:28:50;;;;;;;1.60;1.50;;;33.50;93.00;;;;;;5152998;28;20028;-64
2022/06/23 14:31:29;;;;;;;3.30;1.38;;;36.60;91.60;;;;;;5162692;28;20042;-62
2022/06/23 14:34:31;;;;;;;1.63;1.52;;;38.60;90.30;;;;;;5162232;28;20043;-63
2022/06/23 14:37:43;;;;;;;2.03;1.58;;;40.80;88.60;;;;;;5143468;28;20045;-62
2022/06/23 14:40:33;;;;;;;1.30;1.20;;;41.70;86.10;;;;;;5164023;28;20037;-63
2022/06/23 14:44:29;;;;;;;2.38;1.58;;;41.90;85.40;;;;;;5157683;28;20328;-63
2022/06/23 14:47:37;;;;;;;1.20;1.20;;;42.30;84.70;;;;;;5085638;28;20371;-64
2022/06/23 14:50:14;;;;;;;1.50;1.23;;;40.90;84.90;;;;;;5122667;28;20035;-60
2022/06/23 14:53:16;;;;;;;2.15;1.63;;;39.00;85.80;;;;;;5117831;28;20052;-62
2022/06/23 14:56:12;;;;;;;2.08;1.80;;;38.80;86.00;;;;;;5096310;29;20060;-61
2022/06/23 14:58:54;;;;;;;1.38;1.27;;;39.80;85.40;;;;;;5114505;28;20035;-62
2022/06/23 15:02:08;;;;;;;1.48;1.20;;;38.90;86.30;;;;;;5117590;28;20259;-61
2022/06/23 15:05:09;;;;;;;1.73;1.48;;;39.10;87.00;;;;;;5107108;28;20379;-62